createdAt,value
2018-06-01T00:00:41.744Z,99785.76
2018-06-01T00:03:11.002Z,99777.27
2018-06-01T00:05:39.573Z,99788.48
2018-06-01T00:08:09.242Z,99786.98
2018-06-01T00:10:37.967Z,99789.58
2018-06-01T00:13:06.553Z,99789.98
2018-06-01T00:15:35.549Z,99784.88
2018-06-01T00:18:04.090Z,99788.56
2018-06-01T00:20:33.547Z,99789.13
2018-06-01T00:23:02.109Z,99787.91
2018-06-01T00:25:30.614Z,99789.62
2018-06-01T00:27:59.113Z,99787.41
2018-06-01T00:30:27.650Z,99782.98
2018-06-01T00:32:56.143Z,99778.56
2018-06-01T00:35:24.635Z,99780.87
2018-06-01T00:37:53.474Z,99783.94
2018-06-01T00:40:21.978Z,99789.24
2018-06-01T00:42:50.682Z,99785.50
2018-06-01T00:45:19.403Z,99790.44
2018-06-01T00:47:48.715Z,99792.86
2018-06-01T00:50:17.988Z,99786.25
2018-06-01T00:52:48.189Z,99777.75
2018-06-01T00:55:25.734Z,99782.38
2018-06-01T00:57:55.221Z,99785.28
2018-06-01T01:00:24.556Z,99784.12
2018-06-01T01:02:53.057Z,99786.30
2018-06-01T01:05:21.610Z,99777.27
2018-06-01T01:07:50.106Z,99787.55
2018-06-01T01:10:18.710Z,99784.85
2018-06-01T01:12:47.269Z,99786.30
2018-06-01T01:15:15.919Z,99783.80
2018-06-01T01:17:45.190Z,99785.00
2018-06-01T01:20:13.737Z,99791.91
2018-06-01T01:22:42.446Z,99781.76
2018-06-01T01:25:10.946Z,99785.23
2018-06-01T01:27:39.650Z,99781.72
2018-06-01T01:30:08.150Z,99785.80
2018-06-01T01:32:37.414Z,99783.41
2018-06-01T01:35:06.279Z,99785.55
2018-06-01T01:37:34.789Z,99784.86
2018-06-01T01:40:03.305Z,99782.56
2018-06-01T01:42:32.789Z,99782.78
2018-06-01T01:45:02.056Z,99781.89
2018-06-01T01:47:30.585Z,99783.19
2018-06-01T01:50:00.295Z,99784.30
2018-06-01T01:52:29.814Z,99782.83
2018-06-01T01:54:58.479Z,99784.12
2018-06-01T01:57:28.178Z,99779.00
2018-06-01T01:59:57.442Z,99789.36
2018-06-01T02:02:25.944Z,99786.66
2018-06-01T02:04:54.485Z,99788.23
2018-06-01T02:07:23.459Z,99791.33
2018-06-01T02:09:52.713Z,99788.88
2018-06-01T02:12:21.257Z,99791.77
2018-06-01T02:14:49.762Z,99790.27
2018-06-01T02:17:18.270Z,99792.41
2018-06-01T02:19:47.241Z,99792.63
2018-06-01T02:22:16.554Z,99795.60
2018-06-01T02:24:45.046Z,99809.47
2018-06-01T02:27:13.690Z,99814.85
2018-06-01T02:29:42.193Z,99815.41
2018-06-01T02:32:10.690Z,99808.55
2018-06-01T02:34:39.230Z,99805.84
2018-06-01T02:37:08.227Z,99811.19
2018-06-01T02:39:36.721Z,99811.96
2018-06-01T02:42:05.287Z,99817.03
2018-06-01T02:44:33.781Z,99816.91
2018-06-01T02:47:02.306Z,99823.77
2018-06-01T02:49:31.847Z,99822.78
2018-06-01T02:52:00.583Z,99825.77
2018-06-01T02:54:30.476Z,99826.28
2018-06-01T02:56:59.243Z,99826.28
2018-06-01T02:59:27.734Z,99833.39
2018-06-01T03:01:56.237Z,99828.02
2018-06-01T03:04:25.694Z,99831.80
2018-06-01T03:07:18.715Z,99832.41
2018-06-01T03:09:48.704Z,99833.17
2018-06-01T03:12:17.388Z,99829.00
2018-06-01T03:14:45.893Z,99835.73
2018-06-01T03:17:14.561Z,99836.86
2018-06-01T03:19:43.058Z,99839.84
2018-06-01T03:22:11.570Z,99836.48
2018-06-01T03:24:40.912Z,99840.49
2018-06-01T03:27:09.406Z,99835.34
2018-06-01T03:29:37.901Z,99839.94
2018-06-01T03:32:06.802Z,99839.40
2018-06-01T03:34:36.811Z,99838.01
2018-06-01T03:37:05.337Z,99848.73
2018-06-01T03:39:33.875Z,99844.19
2018-06-01T03:42:02.635Z,99846.91
2018-06-01T03:44:31.133Z,99850.91
2018-06-01T03:46:59.946Z,99853.27
2018-06-01T03:49:29.210Z,99851.11
2018-06-01T03:51:57.783Z,99848.57
2018-06-01T03:54:26.869Z,99848.47
2018-06-01T03:56:55.518Z,99849.48
2018-06-01T03:59:25.765Z,99851.06
2018-06-01T04:01:54.329Z,99852.88
2018-06-01T04:04:24.190Z,99850.25
2018-06-01T04:06:52.678Z,99854.02
2018-06-01T04:09:21.766Z,99850.64
2018-06-01T04:11:50.277Z,99855.38
2018-06-01T04:14:19.542Z,99854.81
2018-06-01T04:16:48.273Z,99855.97
2018-06-01T04:19:17.632Z,99855.48
2018-06-01T04:21:46.130Z,99860.59
2018-06-01T04:24:15.064Z,99862.51
2018-06-01T04:26:43.574Z,99858.84
2018-06-01T04:29:12.225Z,99864.25
2018-06-01T04:31:40.997Z,99857.94
2018-06-01T04:34:09.752Z,99858.45
2018-06-01T04:36:38.257Z,99864.53
2018-06-01T04:39:07.262Z,99868.61
2018-06-01T04:41:36.662Z,99868.06
2018-06-01T04:44:05.950Z,99863.99
2018-06-01T04:46:35.283Z,99867.28
2018-06-01T04:49:04.829Z,99864.09
2018-06-01T04:51:33.414Z,99865.30
2018-06-01T04:54:02.107Z,99866.41
2018-06-01T04:56:30.618Z,99868.68
2018-06-01T04:58:59.114Z,99870.09
2018-06-01T05:01:28.674Z,99873.27
2018-06-01T05:03:57.170Z,99876.66
2018-06-01T05:06:25.686Z,99865.52
2018-06-01T05:08:55.278Z,99869.19
2018-06-01T05:11:23.775Z,99871.02
2018-06-01T05:13:53.096Z,99882.44
2018-06-01T05:16:21.646Z,99879.45
2018-06-01T05:18:50.395Z,99884.88
2018-06-01T05:21:19.081Z,99875.50
2018-06-01T05:23:47.754Z,99872.45
2018-06-01T05:26:16.253Z,99880.33
2018-06-01T05:28:44.962Z,99882.83
2018-06-01T05:31:14.465Z,99884.64
2018-06-01T05:33:43.073Z,99881.73
2018-06-01T05:36:11.585Z,99886.28
2018-06-01T05:38:40.594Z,99876.09
2018-06-01T05:41:09.111Z,99890.55
2018-06-01T05:43:37.605Z,99896.61
2018-06-01T05:46:07.410Z,99890.95
2018-06-01T05:48:36.682Z,99878.64
2018-06-01T05:51:06.131Z,99880.10
2018-06-01T05:53:35.438Z,99889.94
2018-06-01T05:56:03.973Z,99887.98
2018-06-01T05:58:32.635Z,99895.18
2018-06-01T06:01:01.306Z,99897.27
2018-06-01T06:03:29.809Z,99903.64
2018-06-01T06:05:58.386Z,99890.68
2018-06-01T06:08:27.546Z,99891.72
2018-06-01T06:10:56.806Z,99896.98
2018-06-01T06:13:25.370Z,99889.55
2018-06-01T06:15:54.054Z,99892.05
2018-06-01T06:18:22.549Z,99891.58
2018-06-01T06:20:51.217Z,99901.02
2018-06-01T06:23:19.937Z,99891.67
2018-06-01T06:25:48.555Z,99896.07
2018-06-01T06:28:17.882Z,99895.24
2018-06-01T06:30:46.610Z,99896.84
2018-06-01T06:33:15.365Z,99891.39
2018-06-01T06:35:44.050Z,99893.66
2018-06-01T06:38:13.043Z,99890.06
2018-06-01T06:40:41.545Z,99882.19
2018-06-01T06:43:10.052Z,99890.86
2018-06-01T06:45:39.462Z,99882.39
2018-06-01T06:48:08.916Z,99888.27
2018-06-01T06:50:37.425Z,99887.12
2018-06-01T06:53:06.214Z,99883.70
2018-06-01T06:55:34.919Z,99885.54
2018-06-01T06:58:04.230Z,99881.73
2018-06-01T07:00:33.709Z,99877.30
2018-06-01T07:03:02.974Z,99876.52
2018-06-01T07:05:31.479Z,99879.87
2018-06-01T07:08:00.041Z,99881.03
2018-06-01T07:10:28.534Z,99871.09
2018-06-01T07:12:57.976Z,99872.44
2018-06-01T07:15:26.570Z,99879.17
2018-06-01T07:17:55.293Z,99867.99
2018-06-01T07:20:23.809Z,99868.06
2018-06-01T07:22:53.062Z,99870.13
2018-06-01T07:25:21.484Z,99867.95
2018-06-01T07:27:50.693Z,99865.53
2018-06-01T07:30:20.126Z,99865.42
2018-06-01T07:32:48.561Z,99870.69
2018-06-01T07:35:16.989Z,99863.84
2018-06-01T07:37:45.790Z,99872.77
2018-06-01T07:40:14.230Z,99869.94
2018-06-01T07:42:43.425Z,99864.64
2018-06-01T07:45:12.789Z,99868.54
2018-06-01T07:47:41.232Z,99867.89
2018-06-01T07:50:09.671Z,99866.36
2018-06-01T07:52:38.299Z,99860.84
2018-06-01T07:55:06.733Z,99861.64
2018-06-01T07:57:35.156Z,99860.55
2018-06-01T08:00:03.837Z,99860.78
2018-06-01T08:02:32.272Z,99867.80
2018-06-01T08:05:00.704Z,99863.11
2018-06-01T08:07:29.393Z,99856.48
2018-06-01T08:09:57.855Z,99850.56
2018-06-01T08:12:26.309Z,99851.34
2018-06-01T08:14:55.566Z,99854.55
2018-06-01T08:17:24.024Z,99851.20
2018-06-01T08:19:52.482Z,99852.44
2018-06-01T08:22:20.980Z,99854.23
2018-06-01T08:24:49.437Z,99851.94
2018-06-01T08:27:17.892Z,99847.86
2018-06-01T08:29:46.640Z,99849.93
2018-06-01T08:32:15.161Z,99852.86
2018-06-01T08:34:43.637Z,99845.59
2018-06-01T08:37:12.278Z,99841.73
2018-06-01T08:39:40.727Z,99839.03
2018-06-01T08:42:09.178Z,99842.09
2018-06-01T08:44:37.839Z,99836.88
2018-06-01T08:47:06.301Z,99839.33
2018-06-01T08:49:34.752Z,99831.89
2018-06-01T08:52:03.288Z,99835.96
2018-06-01T08:54:32.085Z,99833.94
2018-06-01T08:57:00.536Z,99837.27
2018-06-01T08:59:29.329Z,99835.59
2018-06-01T09:01:57.775Z,99833.23
2018-06-01T09:04:26.241Z,99831.44
2018-06-01T09:06:55.954Z,99824.97
2018-06-01T09:09:25.177Z,99834.61
2018-06-01T09:11:53.657Z,99828.23
2018-06-01T09:14:22.188Z,99834.29
2018-06-01T09:16:52.210Z,99831.45
2018-06-01T09:19:20.734Z,99831.95
2018-06-01T09:21:49.307Z,99828.44
2018-06-01T09:24:17.825Z,99819.00
2018-06-01T09:26:46.530Z,99818.69
2018-06-01T09:29:15.118Z,99824.11
2018-06-01T09:31:45.142Z,99824.39
2018-06-01T09:34:13.662Z,99819.09
2018-06-01T09:36:42.445Z,99816.44
2018-06-01T09:39:10.912Z,99814.98
2018-06-01T09:41:40.137Z,99811.09
2018-06-01T09:44:08.645Z,99815.02
2018-06-01T09:46:37.149Z,99814.46
2018-06-01T09:49:05.590Z,99808.15
2018-06-01T09:51:34.217Z,99809.61
2018-06-01T09:54:02.659Z,99805.00
2018-06-01T09:56:31.104Z,99810.05
2018-06-01T09:59:00.485Z,99796.16
2018-06-01T10:01:29.718Z,99795.04
2018-06-01T10:03:58.178Z,99796.83
2018-06-01T10:06:27.625Z,99805.11
2018-06-01T10:08:56.093Z,99802.31
2018-06-01T10:11:24.553Z,99798.58
2018-06-01T10:13:53.073Z,99793.59
2018-06-01T10:16:21.524Z,99782.79
2018-06-01T10:18:49.992Z,99792.63
2018-06-01T10:21:19.272Z,99785.21
2018-06-01T10:23:48.492Z,99789.95
2018-06-01T10:26:17.721Z,99790.77
2018-06-01T10:28:46.241Z,99774.55
2018-06-01T10:31:14.698Z,99792.68
2018-06-01T10:33:43.229Z,99789.22
2018-06-01T10:36:12.709Z,99791.98
2018-06-01T10:38:42.993Z,99795.53
2018-06-01T10:41:11.511Z,99785.83
2018-06-01T10:43:40.090Z,99789.38
2018-06-01T10:46:08.877Z,99792.82
2018-06-01T10:48:37.406Z,99791.20
2018-06-01T10:51:06.198Z,99786.10
2018-06-01T10:53:34.726Z,99785.38
2018-06-01T10:56:03.253Z,99783.55
2018-06-01T10:58:31.999Z,99781.12
2018-06-01T11:01:00.537Z,99777.31
2018-06-01T11:03:29.054Z,99785.88
2018-06-01T11:05:57.777Z,99777.45
2018-06-01T11:08:27.053Z,99774.73
2018-06-01T11:10:55.582Z,99773.58
2018-06-01T11:13:24.558Z,99767.91
2018-06-01T11:15:53.247Z,99767.28
2018-06-01T11:18:21.990Z,99760.70
2018-06-01T11:20:50.717Z,99766.55
2018-06-01T11:23:20.284Z,99762.11
2018-06-01T11:25:48.970Z,99758.06
2018-06-01T11:28:17.550Z,99763.91
2018-06-01T11:30:46.339Z,99759.73
2018-06-01T11:33:15.026Z,99755.63
2018-06-01T11:35:43.753Z,99758.05
2018-06-01T11:38:13.045Z,99762.09
2018-06-01T11:40:42.333Z,99755.95
2018-06-01T11:43:10.898Z,99749.17
2018-06-01T11:45:39.413Z,99747.08
2018-06-01T11:48:08.885Z,99742.11
2018-06-01T11:50:38.966Z,99746.59
2018-06-01T11:53:07.502Z,99739.12
2018-06-01T11:55:36.787Z,99745.53
2018-06-01T11:58:05.638Z,99743.98
2018-06-01T12:00:34.251Z,99744.02
2018-06-01T12:03:02.937Z,99745.16
2018-06-01T12:05:31.601Z,99746.97
2018-06-01T12:08:00.130Z,99745.72
2018-06-01T12:10:29.411Z,99736.48
2018-06-01T12:12:57.986Z,99736.20
2018-06-01T12:15:26.781Z,99739.36
2018-06-01T12:17:56.081Z,99738.77
2018-06-01T12:20:24.656Z,99735.56
2018-06-01T12:22:53.452Z,99733.83
2018-06-01T12:25:22.160Z,99730.06
2018-06-01T12:27:51.497Z,99724.87
2018-06-01T12:30:20.015Z,99719.65
2018-06-01T12:32:48.666Z,99704.95
2018-06-01T12:35:17.525Z,99705.50
2018-06-01T12:37:46.822Z,99705.52
2018-06-01T12:40:16.167Z,99701.61
2018-06-01T12:42:44.918Z,99700.66
2018-06-01T12:45:13.607Z,99701.98
2018-06-01T12:47:42.138Z,99707.31
2018-06-01T12:50:10.865Z,99715.86
2018-06-01T12:52:40.150Z,99713.63
2018-06-01T12:55:08.674Z,99713.63
2018-06-01T12:57:37.507Z,99706.43
2018-06-01T13:00:06.107Z,99702.44
2018-06-01T13:02:35.592Z,99710.63
2018-06-01T13:05:04.853Z,99705.75
2018-06-01T13:07:33.381Z,99705.86
2018-06-01T13:10:01.911Z,99708.86
2018-06-01T13:12:30.513Z,99697.61
2018-06-01T13:14:59.086Z,99693.20
2018-06-01T13:17:27.610Z,99692.28
2018-06-01T13:19:56.403Z,99698.10
2018-06-01T13:22:25.046Z,99695.84
2018-06-01T13:24:53.571Z,99696.77
2018-06-01T13:27:22.447Z,99695.06
2018-06-01T13:29:51.774Z,99694.05
2018-06-01T13:32:20.306Z,99692.98
2018-06-01T13:34:49.325Z,99687.62
2018-06-01T13:37:17.858Z,99688.09
2018-06-01T13:39:46.389Z,99688.77
2018-06-01T13:42:14.995Z,99680.63
2018-06-01T13:44:44.354Z,99686.48
2018-06-01T13:47:12.874Z,99693.36
2018-06-01T13:49:42.508Z,99692.29
2018-06-01T13:52:11.046Z,99690.33
2018-06-01T13:54:40.366Z,99683.26
2018-06-01T13:57:10.876Z,99678.95
2018-06-01T13:59:39.582Z,99683.13
2018-06-01T14:02:08.212Z,99687.91
2018-06-01T14:04:37.138Z,99683.47
2018-06-01T14:07:05.729Z,99678.16
2018-06-01T14:09:34.245Z,99675.41
2018-06-01T14:12:03.067Z,99671.28
2018-06-01T14:14:32.359Z,99678.73
2018-06-01T14:17:01.737Z,99676.81
2018-06-01T14:19:30.779Z,99676.20
2018-06-01T14:21:59.418Z,99678.58
2018-06-01T14:24:29.457Z,99673.52
2018-06-01T14:26:59.078Z,99673.28
2018-06-01T14:29:28.365Z,99672.30
2018-06-01T14:31:57.844Z,99671.55
2018-06-01T14:34:26.424Z,99663.08
2018-06-01T14:36:54.940Z,99667.89
2018-06-01T14:39:24.234Z,99675.02
2018-06-01T14:41:53.585Z,99666.99
2018-06-01T14:44:22.127Z,99659.58
2018-06-01T14:46:50.847Z,99669.14
2018-06-01T14:49:19.418Z,99670.06
2018-06-01T14:51:47.953Z,99674.80
2018-06-01T14:54:16.474Z,99672.73
2018-06-01T14:56:45.450Z,99669.08
2018-06-01T14:59:13.982Z,99667.31
2018-06-01T15:01:42.515Z,99676.76
2018-06-01T15:04:11.886Z,99675.44
2018-06-01T15:06:40.444Z,99678.17
2018-06-01T15:09:09.054Z,99677.38
2018-06-01T15:11:37.831Z,99676.31
2018-06-01T15:14:06.418Z,99676.13
2018-06-01T15:16:35.201Z,99673.13
2018-06-01T15:19:04.864Z,99670.75
2018-06-01T15:21:33.467Z,99672.43
2018-06-01T15:24:01.998Z,99665.16
2018-06-01T15:26:31.787Z,99660.23
2018-06-01T15:29:00.333Z,99655.63
2018-06-01T15:31:28.910Z,99660.38
2018-06-01T15:33:57.725Z,99657.60
2018-06-01T15:36:26.222Z,99661.86
2018-06-01T15:38:54.745Z,99659.32
2018-06-01T15:41:23.318Z,99658.98
2018-06-01T15:43:52.614Z,99655.33
2018-06-01T15:46:21.914Z,99653.41
2018-06-01T15:48:51.798Z,99659.61
2018-06-01T15:51:20.592Z,99660.93
2018-06-01T15:53:49.893Z,99666.10
2018-06-01T15:56:20.720Z,99668.77
2018-06-01T15:58:49.273Z,99658.17
2018-06-01T16:01:17.801Z,99660.97
2018-06-01T16:03:46.618Z,99660.73
2018-06-01T16:06:15.234Z,99658.77
2018-06-01T16:08:43.754Z,99651.22
2018-06-01T16:11:12.654Z,99649.13
2018-06-01T16:13:42.031Z,99649.00
2018-06-01T16:16:10.562Z,99652.56
2018-06-01T16:18:39.125Z,99646.70
2018-06-01T16:21:08.704Z,99648.05
2018-06-01T16:23:37.391Z,99651.69
2018-06-01T16:26:06.214Z,99650.30
2018-06-01T16:28:35.595Z,99647.17
2018-06-01T16:31:04.150Z,99648.73
2018-06-01T16:33:33.090Z,99647.70
2018-06-01T16:36:02.425Z,99657.47
2018-06-01T16:38:30.938Z,99652.10
2018-06-01T16:41:00.249Z,99655.05
2018-06-01T16:43:28.846Z,99666.63
2018-06-01T16:45:58.942Z,99667.46
2018-06-01T16:48:27.523Z,99672.48
2018-06-01T16:50:56.042Z,99671.45
2018-06-01T16:53:25.515Z,99675.73
2018-06-01T16:55:55.160Z,99676.38
2018-06-01T16:58:23.690Z,99679.56
2018-06-01T17:00:52.366Z,99676.38
2018-06-01T17:03:21.274Z,99679.45
2018-06-01T17:05:50.003Z,99683.09
2018-06-01T17:08:18.753Z,99681.69
2018-06-01T17:10:47.838Z,99688.44
2018-06-01T17:13:16.537Z,99691.55
2018-06-01T17:15:45.039Z,99686.13
2018-06-01T17:18:13.578Z,99687.72
2018-06-01T17:20:42.122Z,99687.11
2018-06-01T17:23:11.487Z,99685.69
2018-06-01T17:25:40.362Z,99689.00
2018-06-01T17:28:08.951Z,99689.20
2018-06-01T17:30:37.689Z,99690.61
2018-06-01T17:33:06.358Z,99699.14
2018-06-01T17:35:35.634Z,99699.00
2018-06-01T17:38:04.404Z,99703.73
2018-06-01T17:40:33.384Z,99707.44
2018-06-01T17:43:01.958Z,99703.83
2018-06-01T17:45:30.670Z,99710.76
2018-06-01T17:47:59.643Z,99718.89
2018-06-01T17:50:28.146Z,99723.62
2018-06-01T17:52:56.640Z,99723.70
2018-06-01T17:55:25.773Z,99730.66
2018-06-01T17:57:54.281Z,99734.11
2018-06-01T18:00:22.794Z,99730.44
2018-06-01T18:02:51.502Z,99732.33
2018-06-01T18:05:19.998Z,99731.02
2018-06-01T18:07:49.262Z,99734.82
2018-06-01T18:10:17.974Z,99734.17
2018-06-01T18:12:46.474Z,99737.96
2018-06-01T18:15:15.145Z,99744.34
2018-06-01T18:17:44.465Z,99743.91
2018-06-01T18:20:13.189Z,99749.30
2018-06-01T18:22:41.748Z,99753.20
2018-06-01T18:25:11.214Z,99753.27
2018-06-01T18:27:40.632Z,99755.08
2018-06-01T18:30:10.080Z,99763.39
2018-06-01T18:32:38.614Z,99769.19
2018-06-01T18:35:08.065Z,99770.06
2018-06-01T18:37:36.759Z,99776.72
2018-06-01T18:40:05.338Z,99785.30
2018-06-01T18:42:33.837Z,99791.77
2018-06-01T18:45:02.479Z,99792.86
2018-06-01T18:47:31.225Z,99793.52
2018-06-01T18:50:00.694Z,99798.78
2018-06-01T18:52:29.982Z,99803.95
2018-06-01T18:54:58.526Z,99808.70
2018-06-01T18:57:27.046Z,99812.15
2018-06-01T18:59:55.534Z,99815.47
2018-06-01T19:02:24.089Z,99812.84
2018-06-01T19:04:52.591Z,99822.83
2018-06-01T19:07:21.094Z,99827.98
2018-06-01T19:09:49.798Z,99829.80
2018-06-01T19:12:18.306Z,99832.66
2018-06-01T19:14:47.574Z,99856.71
2018-06-01T19:17:16.298Z,99856.19
2018-06-01T19:19:44.789Z,99865.47
2018-06-01T19:22:13.285Z,99864.22
2018-06-01T19:24:41.983Z,99873.00
2018-06-01T19:27:10.646Z,99881.63
2018-06-01T19:29:39.202Z,99887.69
2018-06-01T19:32:07.761Z,99880.91
2018-06-01T19:34:37.090Z,99887.97
2018-06-01T19:37:06.366Z,99889.78
2018-06-01T19:39:35.391Z,99896.08
2018-06-01T19:42:03.901Z,99898.77
2018-06-01T19:44:32.704Z,99904.98
2018-06-01T19:47:01.265Z,99913.97
2018-06-01T19:49:31.802Z,99920.69
2018-06-01T19:52:00.310Z,99927.08
2018-06-01T19:54:29.114Z,99931.30
2018-06-01T19:56:58.373Z,99938.39
2018-06-01T19:59:26.918Z,99947.55
2018-06-01T20:01:56.398Z,99948.36
2018-06-01T20:04:25.667Z,99952.64
2018-06-01T20:06:54.344Z,99956.66
2018-06-01T20:09:23.246Z,99962.05
2018-06-01T20:11:51.846Z,99966.22
2018-06-01T20:14:20.347Z,99971.14
2018-06-01T20:16:49.910Z,99970.85
2018-06-01T20:19:18.587Z,99969.33
2018-06-01T20:21:47.090Z,99977.23
2018-06-01T20:24:15.666Z,99976.88
2018-06-01T20:26:44.166Z,99985.34
2018-06-01T20:29:13.470Z,99993.42
2018-06-01T20:31:42.974Z,99992.83
2018-06-01T20:34:11.729Z,100002.42
2018-06-01T20:36:40.234Z,100007.95
2018-06-01T20:39:08.930Z,100012.78
2018-06-01T20:41:37.479Z,100013.78
2018-06-01T20:44:06.475Z,100019.84
2018-06-01T20:46:35.401Z,100027.99
2018-06-01T20:49:04.150Z,100032.80
2018-06-01T20:51:32.655Z,100039.64
2018-06-01T20:54:01.618Z,100043.74
2018-06-01T20:56:30.130Z,100046.89
2018-06-01T20:58:58.646Z,100047.16
2018-06-01T21:01:27.368Z,100051.06
2018-06-01T21:03:55.878Z,100049.80
2018-06-01T21:06:24.530Z,100049.61
2018-06-01T21:08:53.257Z,100053.55
2018-06-01T21:11:21.757Z,100052.73
2018-06-01T21:13:51.102Z,100055.30
2018-06-01T21:16:19.762Z,100056.59
2018-06-01T21:18:48.261Z,100059.19
2018-06-01T21:21:16.856Z,100067.84
2018-06-01T21:23:45.545Z,100066.86
2018-06-01T21:26:14.046Z,100063.16
2018-06-01T21:28:42.559Z,100073.42
2018-06-01T21:31:11.874Z,100080.28
2018-06-01T21:33:40.385Z,100087.76
2018-06-01T21:36:09.067Z,100090.95
2018-06-01T21:38:37.834Z,100094.83
2018-06-01T21:41:06.546Z,100099.98
2018-06-01T21:43:35.057Z,100109.13
2018-06-01T21:46:03.849Z,100114.00
2018-06-01T21:48:32.357Z,100108.98
2018-06-01T21:51:00.870Z,100110.12
2018-06-01T21:53:29.430Z,100114.02
2018-06-01T21:55:57.929Z,100111.55
2018-06-01T21:58:26.461Z,100112.83
2018-06-01T22:00:55.914Z,100111.20
2018-06-01T22:03:24.424Z,100111.23
2018-06-01T22:05:52.926Z,100115.59
2018-06-01T22:08:21.502Z,100123.05
2018-06-01T22:10:50.257Z,100124.70
2018-06-01T22:13:18.766Z,100124.44
2018-06-01T22:15:47.483Z,100121.48
2018-06-01T22:18:15.994Z,100122.13
2018-06-01T22:20:44.646Z,100129.64
2018-06-01T22:23:13.205Z,100132.01
2018-06-01T22:25:41.865Z,100133.06
2018-06-01T22:28:10.377Z,100134.70
2018-06-01T22:30:40.195Z,100128.61
2018-06-01T22:33:09.466Z,100129.41
2018-06-01T22:35:38.009Z,100127.36
2018-06-01T22:38:06.553Z,100128.90
2018-06-01T22:40:35.057Z,100129.91
2018-06-01T22:43:04.381Z,100128.08
2018-06-01T22:45:33.334Z,100131.20
2018-06-01T22:48:02.602Z,100136.98
2018-06-01T22:50:31.287Z,100132.31
2018-06-01T22:52:59.850Z,100128.59
2018-06-01T22:55:28.369Z,100127.95
2018-06-01T22:57:56.874Z,100124.87
2018-06-01T23:13:48.361Z,100113.95
2018-06-01T23:16:16.875Z,100120.05
2018-06-01T23:18:45.378Z,100100.16
2018-06-01T23:21:14.109Z,100101.23
2018-06-01T23:23:42.866Z,100098.70
2018-06-01T23:26:11.373Z,100095.12
2018-06-01T23:28:40.027Z,100092.08
2018-06-01T23:31:08.714Z,100088.67
2018-06-01T23:33:37.217Z,100084.22
2018-06-01T23:36:05.767Z,100088.42
2018-06-01T23:38:34.463Z,100087.86
2018-06-01T23:41:03.149Z,100077.53
2018-06-01T23:43:32.964Z,100078.24
2018-06-01T23:46:01.462Z,100087.19
2018-06-01T23:48:31.471Z,100092.87
2018-06-01T23:51:00.186Z,100097.83
2018-06-01T23:53:28.685Z,100103.69
2018-06-01T23:55:58.122Z,100107.25
2018-06-01T23:58:26.854Z,100104.05
